sensor_id;sensor_type;location;lat;lon;timestamp;pressure;altitude;pressure_sealevel;temperature;humidity
6433;BME280;3249;42.690;23.260;2022-08-01T00:00:30;94379.94;;;20.01;100.00
6433;BME280;3249;42.690;23.260;2022-08-01T00:02:55;94383.81;;;20.09;100.00
6433;BME280;3249;42.690;23.260;2022-08-01T00:05:21;94402.88;;;20.19;100.00
6433;BME280;3249;42.690;23.260;2022-08-01T00:07:46;94375.47;;;20.07;100.00
6433;BME280;3249;42.690;23.260;2022-08-01T00:10:14;94356.94;;;19.98;100.00
6433;BME280;3249;42.690;23.260;2022-08-01T00:12:40;94396.59;;;20.20;100.00
6433;BME280;3249;42.690;23.260;2022-08-01T00:15:08;94397.38;;;20.16;100.00
6433;BME280;3249;42.690;23.260;2022-08-01T00:17:33;94401.59;;;20.12;100.00
6433;BME280;3249;42.690;23.260;2022-08-01T00:19:59;94392.47;;;20.09;100.00
6433;BME280;3249;42.690;23.260;2022-08-01T00:22:24;94405.78;;;20.08;100.00
6433;BME280;3249;42.690;23.260;2022-08-01T00:24:50;94386.81;;;19.92;100.00
6433;BME280;3249;42.690;23.260;2022-08-01T00:27:15;94400.09;;;20.01;100.00
6433;BME280;3249;42.690;23.260;2022-08-01T00:29:41;94400.41;;;19.89;100.00
6433;BME280;3249;42.690;23.260;2022-08-01T00:32:06;94389.22;;;19.79;100.00
6433;BME280;3249;42.690;23.260;2022-08-01T00:34:32;94394.81;;;19.57;100.00
6433;BME280;3249;42.690;23.260;2022-08-01T00:36:58;94393.63;;;19.20;100.00
6433;BME280;3249;42.690;23.260;2022-08-01T00:39:23;94392.38;;;18.87;100.00
6433;BME280;3249;42.690;23.260;2022-08-01T00:41:51;94393.47;;;18.76;100.00
6433;BME280;3249;42.690;23.260;2022-08-01T00:44:17;94403.34;;;18.29;100.00
6433;BME280;3249;42.690;23.260;2022-08-01T00:46:42;94390.53;;;17.97;100.00
6433;BME280;3249;42.690;23.260;2022-08-01T00:49:08;94386.34;;;17.71;100.00
6433;BME280;3249;42.690;23.260;2022-08-01T00:51:34;94388.44;;;17.84;100.00
6433;BME280;3249;42.690;23.260;2022-08-01T00:53:59;94363.44;;;17.83;100.00
6433;BME280;3249;42.690;23.260;2022-08-01T00:56:26;94390.28;;;17.99;100.00
6433;BME280;3249;42.690;23.260;2022-08-01T00:58:53;94373.56;;;17.80;100.00
6433;BME280;3249;42.690;23.260;2022-08-01T01:01:18;94384.31;;;18.08;100.00
6433;BME280;3249;42.690;23.260;2022-08-01T01:03:46;94365.81;;;18.10;100.00
6433;BME280;3249;42.690;23.260;2022-08-01T01:06:33;94380.13;;;18.17;100.00
6433;BME280;3249;42.690;23.260;2022-08-01T01:09:28;94366.31;;;18.07;100.00
6433;BME280;3249;42.690;23.260;2022-08-01T01:14:30;94367.13;;;18.02;100.00
6433;BME280;3249;42.690;23.260;2022-08-01T01:16:58;94356.69;;;17.87;100.00
6433;BME280;3249;42.690;23.260;2022-08-01T01:19:28;94357.09;;;17.49;100.00
6433;BME280;3249;42.690;23.260;2022-08-01T01:24:36;94349.50;;;17.33;100.00
6433;BME280;3249;42.690;23.260;2022-08-01T01:29:56;94350.72;;;17.20;100.00
6433;BME280;3249;42.690;23.260;2022-08-01T01:32:41;94350.78;;;17.35;100.00
6433;BME280;3249;42.690;23.260;2022-08-01T01:35:16;94350.53;;;17.37;100.00
6433;BME280;3249;42.690;23.260;2022-08-01T01:37:44;94333.50;;;17.04;100.00
6433;BME280;3249;42.690;23.260;2022-08-01T01:40:13;94330.00;;;16.79;100.00
6433;BME280;3249;42.690;23.260;2022-08-01T01:42:41;94314.41;;;16.84;100.00
6433;BME280;3249;42.690;23.260;2022-08-01T01:45:08;94327.75;;;17.02;100.00
6433;BME280;3249;42.690;23.260;2022-08-01T01:47:34;94325.94;;;17.03;100.00
6433;BME280;3249;42.690;23.260;2022-08-01T01:50:02;94319.19;;;17.02;100.00
6433;BME280;3249;42.690;23.260;2022-08-01T01:52:29;94315.84;;;17.11;100.00
6433;BME280;3249;42.690;23.260;2022-08-01T01:54:58;94321.56;;;17.13;100.00
6433;BME280;3249;42.690;23.260;2022-08-01T01:57:26;94310.41;;;17.18;100.00
6433;BME280;3249;42.690;23.260;2022-08-01T01:59:53;94312.22;;;17.17;100.00
6433;BME280;3249;42.690;23.260;2022-08-01T02:02:22;94321.31;;;17.15;100.00
6433;BME280;3249;42.690;23.260;2022-08-01T02:04:49;94312.75;;;17.24;100.00
6433;BME280;3249;42.690;23.260;2022-08-01T02:07:21;94332.56;;;17.30;100.00
6433;BME280;3249;42.690;23.260;2022-08-01T02:09:48;94324.25;;;17.38;100.00
6433;BME280;3249;42.690;23.260;2022-08-01T02:12:16;94325.03;;;17.39;100.00
6433;BME280;3249;42.690;23.260;2022-08-01T02:14:43;94315.97;;;17.41;100.00
6433;BME280;3249;42.690;23.260;2022-08-01T02:17:11;94321.47;;;17.60;100.00
6433;BME280;3249;42.690;23.260;2022-08-01T02:19:37;94315.78;;;17.93;100.00
6433;BME280;3249;42.690;23.260;2022-08-01T02:24:35;94292.59;;;18.22;90.97
6433;BME280;3249;42.690;23.260;2022-08-01T02:27:14;94311.09;;;18.50;85.21
6433;BME280;3249;42.690;23.260;2022-08-01T02:29:45;94332.19;;;18.74;81.82
6433;BME280;3249;42.690;23.260;2022-08-01T02:32:19;94329.03;;;18.82;79.66
6433;BME280;3249;42.690;23.260;2022-08-01T02:34:46;94284.75;;;18.57;79.53
6433;BME280;3249;42.690;23.260;2022-08-01T02:37:14;94331.34;;;18.83;82.84
6433;BME280;3249;42.690;23.260;2022-08-01T02:39:41;94328.53;;;18.70;86.28
6433;BME280;3249;42.690;23.260;2022-08-01T02:42:08;94333.50;;;18.61;88.84
6433;BME280;3249;42.690;23.260;2022-08-01T02:44:39;94319.72;;;18.36;91.44
6433;BME280;3249;42.690;23.260;2022-08-01T02:47:05;94318.66;;;18.37;91.30
6433;BME280;3249;42.690;23.260;2022-08-01T02:49:33;94319.97;;;18.39;89.39
6433;BME280;3249;42.690;23.260;2022-08-01T02:52:06;94308.72;;;18.34;90.58
6433;BME280;3249;42.690;23.260;2022-08-01T02:54:33;94299.38;;;18.23;90.94
6433;BME280;3249;42.690;23.260;2022-08-01T02:57:00;94328.28;;;18.26;92.60
6433;BME280;3249;42.690;23.260;2022-08-01T02:59:28;94321.78;;;18.24;92.18
6433;BME280;3249;42.690;23.260;2022-08-01T03:01:56;94324.41;;;18.19;95.31
6433;BME280;3249;42.690;23.260;2022-08-01T03:04:25;94315.00;;;18.33;90.58
6433;BME280;3249;42.690;23.260;2022-08-01T03:06:55;94319.16;;;18.49;89.45
6433;BME280;3249;42.690;23.260;2022-08-01T03:09:25;94320.19;;;18.63;88.75
6433;BME280;3249;42.690;23.260;2022-08-01T03:11:52;94321.47;;;18.80;83.94
6433;BME280;3249;42.690;23.260;2022-08-01T03:14:20;94311.53;;;18.82;83.21
6433;BME280;3249;42.690;23.260;2022-08-01T03:16:47;94318.56;;;18.92;83.14
6433;BME280;3249;42.690;23.260;2022-08-01T03:19:15;94327.66;;;18.94;84.50
6433;BME280;3249;42.690;23.260;2022-08-01T03:21:43;94323.88;;;18.62;91.99
6433;BME280;3249;42.690;23.260;2022-08-01T03:24:10;94309.78;;;18.28;96.21
6433;BME280;3249;42.690;23.260;2022-08-01T03:26:38;94328.53;;;18.30;99.44
6433;BME280;3249;42.690;23.260;2022-08-01T03:29:19;94324.66;;;17.97;100.00
6433;BME280;3249;42.690;23.260;2022-08-01T03:31:48;94327.50;;;17.85;100.00
6433;BME280;3249;42.690;23.260;2022-08-01T03:34:14;94322.50;;;17.59;100.00
6433;BME280;3249;42.690;23.260;2022-08-01T03:36:46;94329.81;;;17.62;100.00
6433;BME280;3249;42.690;23.260;2022-08-01T03:39:14;94329.06;;;17.91;100.00
6433;BME280;3249;42.690;23.260;2022-08-01T03:41:45;94325.94;;;17.89;100.00
6433;BME280;3249;42.690;23.260;2022-08-01T03:44:17;94323.88;;;18.12;100.00
6433;BME280;3249;42.690;23.260;2022-08-01T03:46:47;94319.16;;;18.54;100.00
6433;BME280;3249;42.690;23.260;2022-08-01T03:49:32;94327.75;;;18.69;100.00
6433;BME280;3249;42.690;23.260;2022-08-01T03:52:01;94317.53;;;18.88;97.94
6433;BME280;3249;42.690;23.260;2022-08-01T03:54:31;94332.38;;;19.61;82.58
6433;BME280;3249;42.690;23.260;2022-08-01T03:56:58;94317.97;;;20.07;76.40
6433;BME280;3249;42.690;23.260;2022-08-01T03:59:24;94339.00;;;20.59;69.83
6433;BME280;3249;42.690;23.260;2022-08-01T04:01:50;94334.56;;;20.83;69.75
6433;BME280;3249;42.690;23.260;2022-08-01T04:04:16;94338.84;;;21.26;65.12
6433;BME280;3249;42.690;23.260;2022-08-01T04:06:41;94339.38;;;21.46;63.62
6433;BME280;3249;42.690;23.260;2022-08-01T04:09:09;94344.56;;;21.51;61.03
6433;BME280;3249;42.690;23.260;2022-08-01T04:11:36;94335.84;;;21.56;60.71
6433;BME280;3249;42.690;23.260;2022-08-01T04:14:01;94345.13;;;21.67;59.25
6433;BME280;3249;42.690;23.260;2022-08-01T04:16:27;94340.38;;;21.69;62.17
6433;BME280;3249;42.690;23.260;2022-08-01T04:18:52;94345.59;;;21.74;60.74
6433;BME280;3249;42.690;23.260;2022-08-01T04:21:21;94349.91;;;21.83;59.07
6433;BME280;3249;42.690;23.260;2022-08-01T04:23:48;94354.94;;;21.80;58.06
6433;BME280;3249;42.690;23.260;2022-08-01T04:26:17;94351.97;;;21.63;58.19
6433;BME280;3249;42.690;23.260;2022-08-01T04:28:44;94352.19;;;21.48;59.74
6433;BME280;3249;42.690;23.260;2022-08-01T04:31:10;94350.84;;;21.50;60.37
6433;BME280;3249;42.690;23.260;2022-08-01T04:33:40;94349.34;;;21.44;61.73
6433;BME280;3249;42.690;23.260;2022-08-01T04:36:10;94340.66;;;21.49;61.58
6433;BME280;3249;42.690;23.260;2022-08-01T04:38:38;94351.75;;;21.41;63.08
6433;BME280;3249;42.690;23.260;2022-08-01T04:41:06;94357.91;;;21.50;63.56
6433;BME280;3249;42.690;23.260;2022-08-01T04:43:32;94346.16;;;21.47;62.14
6433;BME280;3249;42.690;23.260;2022-08-01T04:45:58;94351.47;;;21.42;67.36
6433;BME280;3249;42.690;23.260;2022-08-01T04:48:24;94338.56;;;21.27;74.93
6433;BME280;3249;42.690;23.260;2022-08-01T04:50:51;94347.03;;;21.19;79.53
6433;BME280;3249;42.690;23.260;2022-08-01T04:53:18;94358.00;;;20.98;83.33
6433;BME280;3249;42.690;23.260;2022-08-01T04:55:45;94337.69;;;20.28;90.98
6433;BME280;3249;42.690;23.260;2022-08-01T04:58:16;94337.31;;;20.11;95.64
6433;BME280;3249;42.690;23.260;2022-08-01T05:00:41;94342.44;;;20.26;96.30
6433;BME280;3249;42.690;23.260;2022-08-01T05:03:07;94345.34;;;20.19;97.30
6433;BME280;3249;42.690;23.260;2022-08-01T05:05:33;94347.97;;;20.14;98.80
6433;BME280;3249;42.690;23.260;2022-08-01T05:07:58;94346.22;;;20.10;100.00
6433;BME280;3249;42.690;23.260;2022-08-01T05:10:25;94339.59;;;19.79;100.00
6433;BME280;3249;42.690;23.260;2022-08-01T05:12:51;94332.50;;;20.23;100.00
6433;BME280;3249;42.690;23.260;2022-08-01T05:15:16;94332.00;;;20.54;100.00
6433;BME280;3249;42.690;23.260;2022-08-01T05:17:42;94339.59;;;20.51;100.00
6433;BME280;3249;42.690;23.260;2022-08-01T05:20:07;94328.09;;;20.18;100.00
6433;BME280;3249;42.690;23.260;2022-08-01T05:22:33;94340.78;;;20.35;100.00
6433;BME280;3249;42.690;23.260;2022-08-01T05:24:58;94339.38;;;20.14;100.00
6433;BME280;3249;42.690;23.260;2022-08-01T05:27:25;94323.81;;;19.55;100.00
6433;BME280;3249;42.690;23.260;2022-08-01T05:29:50;94334.75;;;20.01;100.00
6433;BME280;3249;42.690;23.260;2022-08-01T05:32:16;94339.69;;;20.41;100.00
6433;BME280;3249;42.690;23.260;2022-08-01T05:34:41;94310.63;;;20.42;100.00
6433;BME280;3249;42.690;23.260;2022-08-01T05:37:07;94334.09;;;20.76;100.00
6433;BME280;3249;42.690;23.260;2022-08-01T05:39:33;94333.94;;;20.96;100.00
6433;BME280;3249;42.690;23.260;2022-08-01T05:41:58;94331.22;;;20.77;100.00
6433;BME280;3249;42.690;23.260;2022-08-01T05:44:24;94334.16;;;20.71;100.00
6433;BME280;3249;42.690;23.260;2022-08-01T05:46:50;94348.09;;;20.95;100.00
6433;BME280;3249;42.690;23.260;2022-08-01T05:49:16;94326.25;;;20.76;100.00
6433;BME280;3249;42.690;23.260;2022-08-01T05:51:42;94343.19;;;21.12;99.11
6433;BME280;3249;42.690;23.260;2022-08-01T05:54:07;94360.09;;;21.43;80.07
6433;BME280;3249;42.690;23.260;2022-08-01T05:56:33;94370.25;;;21.26;67.05
6433;BME280;3249;42.690;23.260;2022-08-01T05:58:58;94355.44;;;21.16;66.69
6433;BME280;3249;42.690;23.260;2022-08-01T06:01:23;94358.41;;;21.10;67.56
6433;BME280;3249;42.690;23.260;2022-08-01T06:03:49;94358.00;;;20.98;67.15
6433;BME280;3249;42.690;23.260;2022-08-01T06:06:14;94365.38;;;20.91;67.73
6433;BME280;3249;42.690;23.260;2022-08-01T06:08:40;94362.59;;;20.82;68.21
6433;BME280;3249;42.690;23.260;2022-08-01T06:11:06;94340.25;;;20.66;69.15
6433;BME280;3249;42.690;23.260;2022-08-01T06:13:32;94356.66;;;21.00;69.07
6433;BME280;3249;42.690;23.260;2022-08-01T06:15:57;94360.00;;;21.06;69.60
6433;BME280;3249;42.690;23.260;2022-08-01T06:18:23;94348.09;;;20.95;68.60
6433;BME280;3249;42.690;23.260;2022-08-01T06:20:48;94361.34;;;21.03;67.97
6433;BME280;3249;42.690;23.260;2022-08-01T06:23:14;94358.56;;;20.95;68.29
6433;BME280;3249;42.690;23.260;2022-08-01T06:25:41;94363.97;;;21.03;68.04
6433;BME280;3249;42.690;23.260;2022-08-01T06:28:07;94364.69;;;21.09;68.86
6433;BME280;3249;42.690;23.260;2022-08-01T06:30:32;94373.84;;;21.11;67.40
6433;BME280;3249;42.690;23.260;2022-08-01T06:32:58;94371.50;;;21.10;67.94
6433;BME280;3249;42.690;23.260;2022-08-01T06:35:25;94357.41;;;21.06;67.73
6433;BME280;3249;42.690;23.260;2022-08-01T06:37:51;94351.00;;;21.17;66.58
6433;BME280;3249;42.690;23.260;2022-08-01T06:40:16;94346.47;;;21.22;68.87
6433;BME280;3249;42.690;23.260;2022-08-01T06:42:43;94337.66;;;21.37;68.58
6433;BME280;3249;42.690;23.260;2022-08-01T06:45:11;94356.94;;;21.64;68.63
6433;BME280;3249;42.690;23.260;2022-08-01T06:47:38;94357.94;;;21.68;69.01
6433;BME280;3249;42.690;23.260;2022-08-01T06:50:05;94349.00;;;21.74;66.06
6433;BME280;3249;42.690;23.260;2022-08-01T06:52:31;94346.81;;;21.58;68.41
6433;BME280;3249;42.690;23.260;2022-08-01T06:54:57;94353.06;;;21.62;69.22
6433;BME280;3249;42.690;23.260;2022-08-01T06:57:23;94347.78;;;21.43;68.68
6433;BME280;3249;42.690;23.260;2022-08-01T06:59:48;94342.00;;;21.65;70.24
6433;BME280;3249;42.690;23.260;2022-08-01T07:02:14;94331.81;;;21.63;69.82
6433;BME280;3249;42.690;23.260;2022-08-01T07:04:39;94345.81;;;21.54;69.99
6433;BME280;3249;42.690;23.260;2022-08-01T07:07:05;94331.81;;;21.63;71.99
6433;BME280;3249;42.690;23.260;2022-08-01T07:09:30;94335.97;;;21.64;71.88
6433;BME280;3249;42.690;23.260;2022-08-01T07:11:55;94337.66;;;21.79;72.64
6433;BME280;3249;42.690;23.260;2022-08-01T07:14:22;94332.84;;;21.86;72.56
6433;BME280;3249;42.690;23.260;2022-08-01T07:16:48;94347.09;;;21.98;73.04
6433;BME280;3249;42.690;23.260;2022-08-01T07:19:13;94329.16;;;22.06;71.67
6433;BME280;3249;42.690;23.260;2022-08-01T07:21:39;94338.75;;;22.29;70.88
6433;BME280;3249;42.690;23.260;2022-08-01T07:24:05;94345.44;;;22.21;67.63
6433;BME280;3249;42.690;23.260;2022-08-01T07:26:31;94351.59;;;22.12;69.31
6433;BME280;3249;42.690;23.260;2022-08-01T07:28:56;94341.09;;;22.12;70.00
6433;BME280;3249;42.690;23.260;2022-08-01T07:31:22;94346.50;;;22.20;69.47
6433;BME280;3249;42.690;23.260;2022-08-01T07:33:48;94352.09;;;22.32;65.60
6433;BME280;3249;42.690;23.260;2022-08-01T07:36:14;94340.09;;;22.26;65.19
6433;BME280;3249;42.690;23.260;2022-08-01T07:38:39;94350.72;;;22.35;67.76
6433;BME280;3249;42.690;23.260;2022-08-01T07:41:04;94339.53;;;22.29;68.00
6433;BME280;3249;42.690;23.260;2022-08-01T07:43:30;94325.81;;;22.19;65.87
6433;BME280;3249;42.690;23.260;2022-08-01T07:45:55;94353.53;;;22.38;66.99
6433;BME280;3249;42.690;23.260;2022-08-01T07:48:21;94355.03;;;22.44;67.01
6433;BME280;3249;42.690;23.260;2022-08-01T07:50:52;94341.28;;;22.52;67.08
6433;BME280;3249;42.690;23.260;2022-08-01T07:53:17;94349.75;;;22.63;68.53
6433;BME280;3249;42.690;23.260;2022-08-01T07:55:43;94342.22;;;22.88;68.05
6433;BME280;3249;42.690;23.260;2022-08-01T07:58:08;94337.06;;;22.83;68.77
6433;BME280;3249;42.690;23.260;2022-08-01T10:07:57;94317.75;;;24.18;51.58
6433;BME280;3249;42.690;23.260;2022-08-01T10:10:22;94327.50;;;24.17;53.79
6433;BME280;3249;42.690;23.260;2022-08-01T10:12:48;94328.00;;;24.19;56.10
6433;BME280;3249;42.690;23.260;2022-08-01T10:15:15;94324.75;;;24.44;50.28
6433;BME280;3249;42.690;23.260;2022-08-01T10:17:46;94325.69;;;24.48;48.84
6433;BME280;3249;42.690;23.260;2022-08-01T10:20:14;94319.13;;;24.37;50.06
6433;BME280;3249;42.690;23.260;2022-08-01T10:22:42;94293.75;;;24.41;51.04
6433;BME280;3249;42.690;23.260;2022-08-01T10:25:09;94310.56;;;24.76;52.15
6433;BME280;3249;42.690;23.260;2022-08-01T10:27:36;94305.75;;;24.78;52.05
6433;BME280;3249;42.690;23.260;2022-08-01T10:30:03;94326.66;;;24.52;51.02
6433;BME280;3249;42.690;23.260;2022-08-01T10:32:31;94320.31;;;24.53;51.82
6433;BME280;3249;42.690;23.260;2022-08-01T10:34:57;94322.59;;;24.46;51.21
6433;BME280;3249;42.690;23.260;2022-08-01T10:37:23;94308.59;;;24.59;51.36
6433;BME280;3249;42.690;23.260;2022-08-01T10:39:51;94302.19;;;24.74;50.71
6433;BME280;3249;42.690;23.260;2022-08-01T10:42:17;94303.63;;;24.58;48.93
6433;BME280;3249;42.690;23.260;2022-08-01T10:44:43;94308.22;;;24.52;50.61
6433;BME280;3249;42.690;23.260;2022-08-01T10:47:14;94300.88;;;24.63;49.74
6433;BME280;3249;42.690;23.260;2022-08-01T10:50:44;94298.50;;;24.53;49.10
6433;BME280;3249;42.690;23.260;2022-08-01T10:52:38;94303.75;;;24.31;51.16
6433;BME280;3249;42.690;23.260;2022-08-01T10:55:04;94296.63;;;24.53;50.99
6433;BME280;3249;42.690;23.260;2022-08-01T10:57:44;94299.50;;;24.65;50.10
6433;BME280;3249;42.690;23.260;2022-08-01T11:00:17;94284.03;;;24.72;49.98
6433;BME280;3249;42.690;23.260;2022-08-01T11:02:59;94288.22;;;24.73;50.30
6433;BME280;3249;42.690;23.260;2022-08-01T11:05:34;94291.78;;;24.69;50.47
6433;BME280;3249;42.690;23.260;2022-08-01T11:08:22;94288.06;;;24.70;50.41
6433;BME280;3249;42.690;23.260;2022-08-01T11:10:47;94276.81;;;24.56;51.67
6433;BME280;3249;42.690;23.260;2022-08-01T11:13:13;94283.78;;;24.82;49.10
6433;BME280;3249;42.690;23.260;2022-08-01T11:15:40;94285.34;;;24.83;48.27
6433;BME280;3249;42.690;23.260;2022-08-01T11:20:58;94285.56;;;24.65;50.99
6433;BME280;3249;42.690;23.260;2022-08-01T11:23:27;94274.53;;;24.63;53.54
6433;BME280;3249;42.690;23.260;2022-08-01T11:28:20;94262.28;;;24.58;56.00
6433;BME280;3249;42.690;23.260;2022-08-01T11:30:47;94277.91;;;24.85;55.12
6433;BME280;3249;42.690;23.260;2022-08-01T11:33:14;94286.59;;;24.86;49.04
6433;BME280;3249;42.690;23.260;2022-08-01T11:41:37;94276.75;;;24.69;53.76
6433;BME280;3249;42.690;23.260;2022-08-01T11:49:25;94281.09;;;24.43;52.49
6433;BME280;3249;42.690;23.260;2022-08-01T11:57:14;94272.03;;;24.58;52.99
6433;BME280;3249;42.690;23.260;2022-08-01T11:59:49;94270.13;;;24.80;53.55
6433;BME280;3249;42.690;23.260;2022-08-01T12:02:20;94273.81;;;25.10;52.16
6433;BME280;3249;42.690;23.260;2022-08-01T12:05:10;94271.97;;;25.19;52.44
6433;BME280;3249;42.690;23.260;2022-08-01T12:07:37;94272.59;;;25.24;50.15
6433;BME280;3249;42.690;23.260;2022-08-01T12:10:12;94274.19;;;25.25;50.22
6433;BME280;3249;42.690;23.260;2022-08-01T12:12:43;94271.31;;;25.05;50.97
6433;BME280;3249;42.690;23.260;2022-08-01T12:15:09;94268.88;;;25.17;49.55
6433;BME280;3249;42.690;23.260;2022-08-01T12:20:10;94263.00;;;25.20;52.35
6433;BME280;3249;42.690;23.260;2022-08-01T12:22:37;94267.88;;;25.43;50.80
6433;BME280;3249;42.690;23.260;2022-08-01T12:25:29;94269.59;;;25.00;55.46
6433;BME280;3249;42.690;23.260;2022-08-01T12:27:55;94269.22;;;25.24;50.32
6433;BME280;3249;42.690;23.260;2022-08-01T12:30:24;94258.63;;;25.15;49.11
6433;BME280;3249;42.690;23.260;2022-08-01T12:32:54;94271.13;;;25.32;50.31
6433;BME280;3249;42.690;23.260;2022-08-01T12:35:29;94270.31;;;25.31;49.08
6433;BME280;3249;42.690;23.260;2022-08-01T12:37:56;94263.22;;;25.32;49.64
6433;BME280;3249;42.690;23.260;2022-08-01T12:40:24;94264.38;;;25.17;50.28
6433;BME280;3249;42.690;23.260;2022-08-01T12:42:58;94269.97;;;25.16;50.48
6433;BME280;3249;42.690;23.260;2022-08-01T12:45:27;94261.97;;;25.29;50.36
6433;BME280;3249;42.690;23.260;2022-08-01T12:47:53;94276.53;;;25.35;49.75
6433;BME280;3249;42.690;23.260;2022-08-01T12:50:21;94260.38;;;25.20;49.59
6433;BME280;3249;42.690;23.260;2022-08-01T12:52:48;94267.25;;;25.46;48.48
6433;BME280;3249;42.690;23.260;2022-08-01T12:55:22;94249.41;;;25.43;49.61
6433;BME280;3249;42.690;23.260;2022-08-01T12:57:50;94270.06;;;25.75;48.58
6433;BME280;3249;42.690;23.260;2022-08-01T13:00:27;94245.69;;;25.36;50.70
6433;BME280;3249;42.690;23.260;2022-08-01T13:05:26;94260.31;;;25.76;48.54
6433;BME280;3249;42.690;23.260;2022-08-01T13:07:52;94246.03;;;25.77;48.62
6433;BME280;3249;42.690;23.260;2022-08-01T13:10:29;94266.66;;;26.01;47.79
6433;BME280;3249;42.690;23.260;2022-08-01T13:12:57;94256.59;;;26.03;47.06
6433;BME280;3249;42.690;23.260;2022-08-01T13:15:28;94246.22;;;25.98;49.55
6433;BME280;3249;42.690;23.260;2022-08-01T13:17:57;94261.66;;;26.42;47.67
6433;BME280;3249;42.690;23.260;2022-08-01T13:20:25;94253.78;;;26.08;49.01
6433;BME280;3249;42.690;23.260;2022-08-01T13:22:51;94250.69;;;26.06;51.07
6433;BME280;3249;42.690;23.260;2022-08-01T13:25:17;94263.69;;;26.28;47.38
6433;BME280;3249;42.690;23.260;2022-08-01T13:27:43;94258.59;;;26.23;45.78
6433;BME280;3249;42.690;23.260;2022-08-01T13:32:37;94243.38;;;26.20;46.45
6433;BME280;3249;42.690;23.260;2022-08-01T13:35:07;94255.34;;;26.09;47.64
6433;BME280;3249;42.690;23.260;2022-08-01T13:37:33;94233.63;;;26.03;49.40
6433;BME280;3249;42.690;23.260;2022-08-01T13:39:59;94229.06;;;26.21;48.30
6433;BME280;3249;42.690;23.260;2022-08-01T13:42:24;94241.41;;;26.54;46.79
6433;BME280;3249;42.690;23.260;2022-08-01T13:44:50;94237.50;;;26.06;47.83
6433;BME280;3249;42.690;23.260;2022-08-01T13:47:15;94240.13;;;26.23;46.71
6433;BME280;3249;42.690;23.260;2022-08-01T13:49:41;94225.78;;;26.41;46.28
6433;BME280;3249;42.690;23.260;2022-08-01T13:52:07;94240.34;;;26.55;45.57
6433;BME280;3249;42.690;23.260;2022-08-01T13:54:32;94241.13;;;26.64;45.33
6433;BME280;3249;42.690;23.260;2022-08-01T13:56:58;94213.28;;;26.67;46.56
6433;BME280;3249;42.690;23.260;2022-08-01T13:59:24;94238.28;;;26.78;46.91
6433;BME280;3249;42.690;23.260;2022-08-01T14:01:49;94229.50;;;26.94;44.85
6433;BME280;3249;42.690;23.260;2022-08-01T14:04:15;94236.66;;;26.85;45.64
6433;BME280;3249;42.690;23.260;2022-08-01T14:06:40;94235.56;;;26.86;45.87
6433;BME280;3249;42.690;23.260;2022-08-01T14:09:06;94235.50;;;27.03;46.11
6433;BME280;3249;42.690;23.260;2022-08-01T14:11:31;94237.91;;;26.88;44.33
6433;BME280;3249;42.690;23.260;2022-08-01T14:13:58;94220.16;;;26.59;44.88
6433;BME280;3249;42.690;23.260;2022-08-01T14:16:23;94226.72;;;26.45;46.31
6433;BME280;3249;42.690;23.260;2022-08-01T14:18:49;94217.47;;;26.05;48.40
6433;BME280;3249;42.690;23.260;2022-08-01T14:21:15;94225.44;;;26.42;47.55
6433;BME280;3249;42.690;23.260;2022-08-01T14:23:41;94225.50;;;26.80;46.64
6433;BME280;3249;42.690;23.260;2022-08-01T14:26:08;94229.13;;;26.75;45.28
6433;BME280;3249;42.690;23.260;2022-08-01T14:28:33;94229.88;;;26.76;46.11
6433;BME280;3249;42.690;23.260;2022-08-01T14:30:59;94238.59;;;27.05;45.29
6433;BME280;3249;42.690;23.260;2022-08-01T14:33:25;94241.13;;;27.31;44.44
6433;BME280;3249;42.690;23.260;2022-08-01T14:35:51;94242.31;;;27.42;43.57
6433;BME280;3249;42.690;23.260;2022-08-01T14:38:17;94228.69;;;27.52;44.11
6433;BME280;3249;42.690;23.260;2022-08-01T14:40:43;94236.53;;;27.69;42.99
6433;BME280;3249;42.690;23.260;2022-08-01T14:43:08;94238.75;;;27.79;42.07
6433;BME280;3249;42.690;23.260;2022-08-01T14:45:34;94243.44;;;27.82;42.40
6433;BME280;3249;42.690;23.260;2022-08-01T14:48:00;94238.94;;;27.53;42.92
6433;BME280;3249;42.690;23.260;2022-08-01T14:50:25;94240.56;;;27.46;43.67
6433;BME280;3249;42.690;23.260;2022-08-01T14:52:54;94247.78;;;27.37;42.63
6433;BME280;3249;42.690;23.260;2022-08-01T14:55:19;94243.13;;;27.05;44.70
6433;BME280;3249;42.690;23.260;2022-08-01T14:57:49;94246.75;;;26.46;46.08
6433;BME280;3249;42.690;23.260;2022-08-01T15:00:15;94243.75;;;27.02;44.40
6433;BME280;3249;42.690;23.260;2022-08-01T15:02:40;94245.91;;;27.37;43.48
6433;BME280;3249;42.690;23.260;2022-08-01T15:05:07;94223.31;;;27.40;43.02
6433;BME280;3249;42.690;23.260;2022-08-01T15:07:32;94253.81;;;27.87;41.03
6433;BME280;3249;42.690;23.260;2022-08-01T15:09:58;94242.06;;;27.96;41.61
6433;BME280;3249;42.690;23.260;2022-08-01T15:12:23;94243.28;;;27.99;40.66
6433;BME280;3249;42.690;23.260;2022-08-01T15:14:49;94257.63;;;27.98;40.75
6433;BME280;3249;42.690;23.260;2022-08-01T15:17:14;94255.25;;;28.05;39.69
6433;BME280;3249;42.690;23.260;2022-08-01T15:19:40;94245.09;;;28.39;41.70
6433;BME280;3249;42.690;23.260;2022-08-01T15:22:06;94255.72;;;28.19;41.27
6433;BME280;3249;42.690;23.260;2022-08-01T15:24:31;94240.91;;;28.06;41.94
6433;BME280;3249;42.690;23.260;2022-08-01T15:26:57;94241.25;;;28.16;40.43
6433;BME280;3249;42.690;23.260;2022-08-01T15:29:23;94253.81;;;28.40;40.25
6433;BME280;3249;42.690;23.260;2022-08-01T15:31:48;94249.59;;;28.59;38.46
6433;BME280;3249;42.690;23.260;2022-08-01T15:34:14;94249.25;;;28.28;38.71
6433;BME280;3249;42.690;23.260;2022-08-01T15:36:40;94248.09;;;28.17;39.25
6433;BME280;3249;42.690;23.260;2022-08-01T15:39:08;94249.38;;;28.32;38.65
6433;BME280;3249;42.690;23.260;2022-08-01T15:41:34;94219.53;;;27.70;38.62
6433;BME280;3249;42.690;23.260;2022-08-01T15:43:59;94247.34;;;27.55;38.99
6433;BME280;3249;42.690;23.260;2022-08-01T15:46:24;94246.28;;;27.27;40.45
6433;BME280;3249;42.690;23.260;2022-08-01T15:48:50;94246.00;;;26.91;40.34
6433;BME280;3249;42.690;23.260;2022-08-01T15:51:15;94235.06;;;26.64;40.92
6433;BME280;3249;42.690;23.260;2022-08-01T15:53:41;94241.28;;;26.59;41.92
6433;BME280;3249;42.690;23.260;2022-08-01T15:56:07;94226.66;;;26.53;42.00